sensor_id;sensor_type;location;lat;lon;timestamp;P1;durP1;ratioP1;P2;durP2;ratioP2
49510;SDS011;35413;48.776;9.204;2022-12-18T00:01:40;8.40;;;6.45;;
49510;SDS011;35413;48.776;9.204;2022-12-18T00:04:07;9.07;;;6.78;;
49510;SDS011;35413;48.776;9.204;2022-12-18T00:06:35;9.48;;;6.47;;
49510;SDS011;35413;48.776;9.204;2022-12-18T00:09:02;9.43;;;7.70;;
49510;SDS011;35413;48.776;9.204;2022-12-18T00:11:29;9.15;;;6.30;;
49510;SDS011;35413;48.776;9.204;2022-12-18T00:13:56;9.85;;;6.53;;
49510;SDS011;35413;48.776;9.204;2022-12-18T00:16:23;9.50;;;7.00;;
49510;SDS011;35413;48.776;9.204;2022-12-18T00:18:51;8.88;;;6.43;;
49510;SDS011;35413;48.776;9.204;2022-12-18T00:21:18;10.32;;;6.93;;
49510;SDS011;35413;48.776;9.204;2022-12-18T00:23:45;9.05;;;7.07;;
49510;SDS011;35413;48.776;9.204;2022-12-18T00:26:12;9.57;;;6.80;;
49510;SDS011;35413;48.776;9.204;2022-12-18T00:28:40;9.68;;;7.50;;
49510;SDS011;35413;48.776;9.204;2022-12-18T00:31:13;9.70;;;6.68;;
49510;SDS011;35413;48.776;9.204;2022-12-18T00:33:39;9.70;;;6.45;;
49510;SDS011;35413;48.776;9.204;2022-12-18T00:36:27;9.48;;;6.82;;
49510;SDS011;35413;48.776;9.204;2022-12-18T00:38:53;11.68;;;7.53;;
49510;SDS011;35413;48.776;9.204;2022-12-18T00:41:19;8.70;;;6.68;;
49510;SDS011;35413;48.776;9.204;2022-12-18T00:44:04;8.88;;;6.53;;
49510;SDS011;35413;48.776;9.204;2022-12-18T00:46:30;9.82;;;7.18;;
49510;SDS011;35413;48.776;9.204;2022-12-18T00:48:57;9.18;;;7.20;;
49510;SDS011;35413;48.776;9.204;2022-12-18T00:51:23;10.68;;;7.45;;
49510;SDS011;35413;48.776;9.204;2022-12-18T00:53:49;10.73;;;7.40;;
49510;SDS011;35413;48.776;9.204;2022-12-18T00:56:15;9.00;;;6.40;;
49510;SDS011;35413;48.776;9.204;2022-12-18T00:58:41;9.27;;;6.75;;
49510;SDS011;35413;48.776;9.204;2022-12-18T01:01:07;9.25;;;6.38;;
49510;SDS011;35413;48.776;9.204;2022-12-18T01:03:34;10.32;;;7.30;;
49510;SDS011;35413;48.776;9.204;2022-12-18T01:06:04;9.55;;;7.07;;
49510;SDS011;35413;48.776;9.204;2022-12-18T01:08:31;9.18;;;6.85;;
49510;SDS011;35413;48.776;9.204;2022-12-18T01:10:56;9.48;;;7.40;;
49510;SDS011;35413;48.776;9.204;2022-12-18T01:13:22;8.73;;;6.43;;
49510;SDS011;35413;48.776;9.204;2022-12-18T01:15:49;8.45;;;6.30;;
49510;SDS011;35413;48.776;9.204;2022-12-18T01:18:15;9.57;;;6.75;;
49510;SDS011;35413;48.776;9.204;2022-12-18T01:20:41;9.23;;;6.50;;
49510;SDS011;35413;48.776;9.204;2022-12-18T01:23:07;10.73;;;6.88;;
49510;SDS011;35413;48.776;9.204;2022-12-18T01:25:35;9.75;;;7.20;;
49510;SDS011;35413;48.776;9.204;2022-12-18T01:28:01;9.23;;;6.32;;
49510;SDS011;35413;48.776;9.204;2022-12-18T01:30:27;8.88;;;6.75;;
49510;SDS011;35413;48.776;9.204;2022-12-18T01:32:53;11.43;;;6.85;;
49510;SDS011;35413;48.776;9.204;2022-12-18T01:35:19;9.68;;;6.90;;
49510;SDS011;35413;48.776;9.204;2022-12-18T01:37:45;8.30;;;5.80;;
49510;SDS011;35413;48.776;9.204;2022-12-18T01:40:11;8.95;;;6.45;;
49510;SDS011;35413;48.776;9.204;2022-12-18T01:42:37;10.20;;;7.25;;
49510;SDS011;35413;48.776;9.204;2022-12-18T01:45:20;8.85;;;6.50;;
49510;SDS011;35413;48.776;9.204;2022-12-18T01:47:52;8.13;;;6.20;;
49510;SDS011;35413;48.776;9.204;2022-12-18T01:55:28;11.70;;;6.95;;
49510;SDS011;35413;48.776;9.204;2022-12-18T01:57:56;8.05;;;5.85;;
49510;SDS011;35413;48.776;9.204;2022-12-18T02:00:23;8.73;;;6.20;;
49510;SDS011;35413;48.776;9.204;2022-12-18T02:02:49;8.07;;;5.97;;
49510;SDS011;35413;48.776;9.204;2022-12-18T02:05:22;9.30;;;6.25;;
49510;SDS011;35413;48.776;9.204;2022-12-18T02:10:24;9.02;;;6.65;;
49510;SDS011;35413;48.776;9.204;2022-12-18T02:12:55;8.20;;;6.25;;
49510;SDS011;35413;48.776;9.204;2022-12-18T02:15:27;8.93;;;6.50;;
49510;SDS011;35413;48.776;9.204;2022-12-18T02:17:57;8.85;;;6.38;;
49510;SDS011;35413;48.776;9.204;2022-12-18T02:25:57;8.63;;;6.43;;
49510;SDS011;35413;48.776;9.204;2022-12-18T02:28:28;7.93;;;5.63;;
49510;SDS011;35413;48.776;9.204;2022-12-18T02:30:57;8.88;;;6.53;;
49510;SDS011;35413;48.776;9.204;2022-12-18T02:33:24;8.98;;;6.32;;
49510;SDS011;35413;48.776;9.204;2022-12-18T02:35:50;10.80;;;7.13;;
49510;SDS011;35413;48.776;9.204;2022-12-18T02:38:17;9.43;;;6.70;;
49510;SDS011;35413;48.776;9.204;2022-12-18T02:40:43;7.97;;;5.53;;
49510;SDS011;35413;48.776;9.204;2022-12-18T02:43:11;9.02;;;6.07;;
49510;SDS011;35413;48.776;9.204;2022-12-18T02:45:50;9.50;;;6.22;;
49510;SDS011;35413;48.776;9.204;2022-12-18T02:48:18;9.07;;;6.55;;
49510;SDS011;35413;48.776;9.204;2022-12-18T02:50:48;7.88;;;5.63;;
49510;SDS011;35413;48.776;9.204;2022-12-18T02:55:50;8.80;;;6.03;;
49510;SDS011;35413;48.776;9.204;2022-12-18T02:58:20;8.00;;;5.80;;
49510;SDS011;35413;48.776;9.204;2022-12-18T03:00:53;9.70;;;6.47;;
49510;SDS011;35413;48.776;9.204;2022-12-18T03:03:40;9.45;;;7.15;;
49510;SDS011;35413;48.776;9.204;2022-12-18T03:06:08;11.70;;;6.97;;
49510;SDS011;35413;48.776;9.204;2022-12-18T03:08:37;8.80;;;6.10;;
49510;SDS011;35413;48.776;9.204;2022-12-18T03:11:11;8.80;;;6.10;;
49510;SDS011;35413;48.776;9.204;2022-12-18T03:13:48;9.05;;;6.10;;
49510;SDS011;35413;48.776;9.204;2022-12-18T03:16:25;9.05;;;6.68;;
49510;SDS011;35413;48.776;9.204;2022-12-18T03:18:56;10.07;;;6.88;;
49510;SDS011;35413;48.776;9.204;2022-12-18T03:21:28;7.03;;;5.55;;
49510;SDS011;35413;48.776;9.204;2022-12-18T03:23:55;8.70;;;6.43;;
49510;SDS011;35413;48.776;9.204;2022-12-18T03:26:22;7.35;;;6.10;;
49510;SDS011;35413;48.776;9.204;2022-12-18T03:28:52;9.30;;;6.72;;
49510;SDS011;35413;48.776;9.204;2022-12-18T03:31:18;10.30;;;7.35;;
49510;SDS011;35413;48.776;9.204;2022-12-18T03:33:46;7.53;;;5.55;;
49510;SDS011;35413;48.776;9.204;2022-12-18T03:36:13;7.88;;;5.82;;
49510;SDS011;35413;48.776;9.204;2022-12-18T03:38:39;9.52;;;6.40;;
49510;SDS011;35413;48.776;9.204;2022-12-18T03:46:17;8.93;;;6.32;;
49510;SDS011;35413;48.776;9.204;2022-12-18T03:48:48;7.70;;;5.50;;
49510;SDS011;35413;48.776;9.204;2022-12-18T03:51:39;8.90;;;6.70;;
49510;SDS011;35413;48.776;9.204;2022-12-18T03:54:02;9.30;;;6.47;;
49510;SDS011;35413;48.776;9.204;2022-12-18T03:56:31;8.70;;;6.68;;
49510;SDS011;35413;48.776;9.204;2022-12-18T03:58:57;8.88;;;5.85;;
49510;SDS011;35413;48.776;9.204;2022-12-18T04:01:26;7.97;;;5.63;;
49510;SDS011;35413;48.776;9.204;2022-12-18T04:03:54;8.25;;;6.05;;
49510;SDS011;35413;48.776;9.204;2022-12-18T04:06:21;8.45;;;5.93;;
49510;SDS011;35413;48.776;9.204;2022-12-18T04:08:48;8.80;;;5.63;;
49510;SDS011;35413;48.776;9.204;2022-12-18T04:11:14;6.68;;;5.70;;
49510;SDS011;35413;48.776;9.204;2022-12-18T04:13:41;8.20;;;5.97;;
49510;SDS011;35413;48.776;9.204;2022-12-18T04:16:08;8.13;;;5.82;;
49510;SDS011;35413;48.776;9.204;2022-12-18T04:18:34;7.68;;;5.75;;
49510;SDS011;35413;48.776;9.204;2022-12-18T04:21:00;8.18;;;5.78;;
49510;SDS011;35413;48.776;9.204;2022-12-18T04:23:26;7.75;;;5.55;;
49510;SDS011;35413;48.776;9.204;2022-12-18T04:25:53;7.38;;;5.93;;
49510;SDS011;35413;48.776;9.204;2022-12-18T04:28:19;7.70;;;5.35;;
49510;SDS011;35413;48.776;9.204;2022-12-18T04:30:45;6.93;;;5.00;;
49510;SDS011;35413;48.776;9.204;2022-12-18T04:33:11;7.22;;;5.38;;
49510;SDS011;35413;48.776;9.204;2022-12-18T04:35:38;8.57;;;5.63;;
49510;SDS011;35413;48.776;9.204;2022-12-18T04:38:05;8.60;;;6.35;;
49510;SDS011;35413;48.776;9.204;2022-12-18T04:40:33;6.45;;;5.03;;
49510;SDS011;35413;48.776;9.204;2022-12-18T04:42:59;8.13;;;5.35;;
49510;SDS011;35413;48.776;9.204;2022-12-18T04:45:25;7.88;;;5.68;;
49510;SDS011;35413;48.776;9.204;2022-12-18T04:47:51;8.10;;;5.97;;
49510;SDS011;35413;48.776;9.204;2022-12-18T04:50:16;7.57;;;5.95;;
49510;SDS011;35413;48.776;9.204;2022-12-18T04:52:42;7.47;;;5.68;;
49510;SDS011;35413;48.776;9.204;2022-12-18T04:55:08;8.45;;;5.72;;
49510;SDS011;35413;48.776;9.204;2022-12-18T04:57:34;7.60;;;6.07;;
49510;SDS011;35413;48.776;9.204;2022-12-18T05:00:00;8.00;;;5.25;;
49510;SDS011;35413;48.776;9.204;2022-12-18T05:02:26;6.97;;;5.57;;
49510;SDS011;35413;48.776;9.204;2022-12-18T05:04:52;7.25;;;5.47;;
49510;SDS011;35413;48.776;9.204;2022-12-18T05:07:18;7.10;;;5.50;;
49510;SDS011;35413;48.776;9.204;2022-12-18T05:09:44;8.63;;;5.90;;
49510;SDS011;35413;48.776;9.204;2022-12-18T05:12:10;6.60;;;4.97;;
49510;SDS011;35413;48.776;9.204;2022-12-18T05:14:36;6.72;;;5.50;;
49510;SDS011;35413;48.776;9.204;2022-12-18T05:17:02;8.23;;;5.97;;
49510;SDS011;35413;48.776;9.204;2022-12-18T05:19:28;7.20;;;5.22;;
49510;SDS011;35413;48.776;9.204;2022-12-18T05:21:54;7.88;;;5.32;;
49510;SDS011;35413;48.776;9.204;2022-12-18T05:24:20;6.90;;;5.10;;
49510;SDS011;35413;48.776;9.204;2022-12-18T05:26:46;7.82;;;5.13;;
49510;SDS011;35413;48.776;9.204;2022-12-18T05:29:12;7.53;;;5.40;;
49510;SDS011;35413;48.776;9.204;2022-12-18T05:31:38;6.95;;;5.10;;
49510;SDS011;35413;48.776;9.204;2022-12-18T05:34:04;6.97;;;4.95;;
49510;SDS011;35413;48.776;9.204;2022-12-18T05:36:30;7.30;;;5.75;;
49510;SDS011;35413;48.776;9.204;2022-12-18T05:38:56;7.55;;;5.47;;
49510;SDS011;35413;48.776;9.204;2022-12-18T05:41:22;6.10;;;4.90;;
49510;SDS011;35413;48.776;9.204;2022-12-18T05:43:48;9.07;;;5.78;;
49510;SDS011;35413;48.776;9.204;2022-12-18T05:46:15;7.55;;;5.35;;
49510;SDS011;35413;48.776;9.204;2022-12-18T05:48:42;8.35;;;5.47;;
49510;SDS011;35413;48.776;9.204;2022-12-18T05:51:10;7.40;;;5.00;;
49510;SDS011;35413;48.776;9.204;2022-12-18T05:53:36;8.65;;;4.78;;
49510;SDS011;35413;48.776;9.204;2022-12-18T05:56:03;7.53;;;5.10;;
49510;SDS011;35413;48.776;9.204;2022-12-18T05:58:29;8.27;;;5.72;;
49510;SDS011;35413;48.776;9.204;2022-12-18T06:00:55;7.22;;;4.63;;
49510;SDS011;35413;48.776;9.204;2022-12-18T06:03:21;7.00;;;5.20;;
49510;SDS011;35413;48.776;9.204;2022-12-18T06:05:48;6.75;;;5.03;;
49510;SDS011;35413;48.776;9.204;2022-12-18T06:08:14;6.38;;;5.07;;
49510;SDS011;35413;48.776;9.204;2022-12-18T06:10:40;6.70;;;4.90;;
49510;SDS011;35413;48.776;9.204;2022-12-18T06:13:06;7.35;;;4.90;;
49510;SDS011;35413;48.776;9.204;2022-12-18T06:15:32;6.25;;;4.75;;
49510;SDS011;35413;48.776;9.204;2022-12-18T06:18:00;5.97;;;4.70;;
49510;SDS011;35413;48.776;9.204;2022-12-18T06:20:26;6.25;;;4.85;;
49510;SDS011;35413;48.776;9.204;2022-12-18T06:22:52;8.02;;;4.82;;
49510;SDS011;35413;48.776;9.204;2022-12-18T06:25:18;8.35;;;5.30;;
49510;SDS011;35413;48.776;9.204;2022-12-18T06:27:44;8.00;;;5.15;;
49510;SDS011;35413;48.776;9.204;2022-12-18T06:30:10;6.53;;;5.05;;
49510;SDS011;35413;48.776;9.204;2022-12-18T06:32:37;7.30;;;5.20;;
49510;SDS011;35413;48.776;9.204;2022-12-18T06:35:03;7.10;;;5.57;;
49510;SDS011;35413;48.776;9.204;2022-12-18T06:37:30;6.78;;;4.63;;
49510;SDS011;35413;48.776;9.204;2022-12-18T06:39:56;6.55;;;4.70;;
49510;SDS011;35413;48.776;9.204;2022-12-18T06:42:22;6.53;;;4.57;;
49510;SDS011;35413;48.776;9.204;2022-12-18T06:44:48;6.05;;;4.60;;
49510;SDS011;35413;48.776;9.204;2022-12-18T06:47:14;7.50;;;5.35;;
49510;SDS011;35413;48.776;9.204;2022-12-18T06:49:40;7.13;;;5.45;;
49510;SDS011;35413;48.776;9.204;2022-12-18T06:52:06;8.15;;;4.70;;
49510;SDS011;35413;48.776;9.204;2022-12-18T06:54:32;6.35;;;4.90;;
49510;SDS011;35413;48.776;9.204;2022-12-18T06:56:58;5.90;;;4.30;;
49510;SDS011;35413;48.776;9.204;2022-12-18T06:59:24;6.25;;;4.65;;
49510;SDS011;35413;48.776;9.204;2022-12-18T07:01:50;7.57;;;5.03;;
49510;SDS011;35413;48.776;9.204;2022-12-18T07:04:16;5.72;;;4.78;;
49510;SDS011;35413;48.776;9.204;2022-12-18T07:06:42;6.25;;;4.70;;
49510;SDS011;35413;48.776;9.204;2022-12-18T07:09:08;6.05;;;5.20;;
49510;SDS011;35413;48.776;9.204;2022-12-18T07:11:34;6.13;;;4.10;;
49510;SDS011;35413;48.776;9.204;2022-12-18T07:14:00;6.72;;;4.70;;
49510;SDS011;35413;48.776;9.204;2022-12-18T07:16:26;6.68;;;4.70;;
49510;SDS011;35413;48.776;9.204;2022-12-18T07:18:55;5.90;;;4.43;;
49510;SDS011;35413;48.776;9.204;2022-12-18T07:21:22;5.18;;;3.67;;
49510;SDS011;35413;48.776;9.204;2022-12-18T07:23:48;6.03;;;4.72;;
49510;SDS011;35413;48.776;9.204;2022-12-18T07:26:15;7.20;;;5.43;;
49510;SDS011;35413;48.776;9.204;2022-12-18T07:28:41;5.80;;;4.38;;
49510;SDS011;35413;48.776;9.204;2022-12-18T07:31:08;5.05;;;4.28;;
49510;SDS011;35413;48.776;9.204;2022-12-18T07:33:35;4.88;;;3.70;;
49510;SDS011;35413;48.776;9.204;2022-12-18T07:36:01;4.20;;;3.80;;
49510;SDS011;35413;48.776;9.204;2022-12-18T07:38:28;6.55;;;4.63;;
49510;SDS011;35413;48.776;9.204;2022-12-18T07:40:54;7.10;;;4.57;;
49510;SDS011;35413;48.776;9.204;2022-12-18T07:43:20;8.30;;;4.75;;
49510;SDS011;35413;48.776;9.204;2022-12-18T07:45:48;6.05;;;4.40;;
49510;SDS011;35413;48.776;9.204;2022-12-18T07:48:15;6.13;;;4.55;;
49510;SDS011;35413;48.776;9.204;2022-12-18T07:50:41;6.30;;;4.32;;
49510;SDS011;35413;48.776;9.204;2022-12-18T07:53:07;9.00;;;5.35;;
49510;SDS011;35413;48.776;9.204;2022-12-18T07:55:33;6.97;;;5.13;;
49510;SDS011;35413;48.776;9.204;2022-12-18T07:58:02;6.15;;;4.70;;
49510;SDS011;35413;48.776;9.204;2022-12-18T08:00:30;8.77;;;5.18;;
49510;SDS011;35413;48.776;9.204;2022-12-18T08:02:56;7.25;;;4.47;;
49510;SDS011;35413;48.776;9.204;2022-12-18T08:05:22;5.85;;;4.18;;
49510;SDS011;35413;48.776;9.204;2022-12-18T08:07:48;7.80;;;4.72;;
49510;SDS011;35413;48.776;9.204;2022-12-18T08:10:14;5.93;;;4.35;;
49510;SDS011;35413;48.776;9.204;2022-12-18T08:12:40;6.20;;;4.47;;
49510;SDS011;35413;48.776;9.204;2022-12-18T08:15:07;6.13;;;4.20;;
49510;SDS011;35413;48.776;9.204;2022-12-18T08:17:33;6.68;;;4.57;;
49510;SDS011;35413;48.776;9.204;2022-12-18T08:19:59;6.82;;;5.10;;
49510;SDS011;35413;48.776;9.204;2022-12-18T08:22:25;5.70;;;4.18;;
49510;SDS011;35413;48.776;9.204;2022-12-18T08:24:51;5.93;;;4.47;;
49510;SDS011;35413;48.776;9.204;2022-12-18T08:27:17;7.70;;;5.65;;
49510;SDS011;35413;48.776;9.204;2022-12-18T08:29:43;5.32;;;3.90;;
49510;SDS011;35413;48.776;9.204;2022-12-18T08:32:09;7.15;;;4.50;;
49510;SDS011;35413;48.776;9.204;2022-12-18T08:34:35;6.50;;;4.70;;
49510;SDS011;35413;48.776;9.204;2022-12-18T08:37:01;5.03;;;4.30;;
49510;SDS011;35413;48.776;9.204;2022-12-18T08:39:27;4.95;;;4.00;;
49510;SDS011;35413;48.776;9.204;2022-12-18T08:41:53;7.68;;;5.05;;
49510;SDS011;35413;48.776;9.204;2022-12-18T08:44:38;6.40;;;4.60;;
49510;SDS011;35413;48.776;9.204;2022-12-18T08:47:05;7.18;;;4.47;;
49510;SDS011;35413;48.776;9.204;2022-12-18T08:49:31;6.03;;;3.97;;
49510;SDS011;35413;48.776;9.204;2022-12-18T08:51:57;5.90;;;4.35;;
49510;SDS011;35413;48.776;9.204;2022-12-18T08:54:23;5.45;;;3.97;;
49510;SDS011;35413;48.776;9.204;2022-12-18T08:56:49;8.23;;;4.10;;
49510;SDS011;35413;48.776;9.204;2022-12-18T08:59:16;6.38;;;4.43;;
49510;SDS011;35413;48.776;9.204;2022-12-18T09:01:42;6.60;;;4.68;;
49510;SDS011;35413;48.776;9.204;2022-12-18T09:04:08;6.07;;;4.30;;
49510;SDS011;35413;48.776;9.204;2022-12-18T09:06:34;7.78;;;5.85;;
49510;SDS011;35413;48.776;9.204;2022-12-18T09:09:00;18.77;;;13.93;;
49510;SDS011;35413;48.776;9.204;2022-12-18T09:11:27;23.92;;;15.20;;
49510;SDS011;35413;48.776;9.204;2022-12-18T09:13:53;20.85;;;12.43;;
49510;SDS011;35413;48.776;9.204;2022-12-18T09:16:20;16.73;;;12.25;;
49510;SDS011;35413;48.776;9.204;2022-12-18T09:18:46;15.43;;;10.82;;
49510;SDS011;35413;48.776;9.204;2022-12-18T09:21:16;16.55;;;10.38;;
49510;SDS011;35413;48.776;9.204;2022-12-18T09:23:43;16.15;;;10.45;;
49510;SDS011;35413;48.776;9.204;2022-12-18T09:26:09;12.10;;;9.02;;
49510;SDS011;35413;48.776;9.204;2022-12-18T09:28:35;12.65;;;9.15;;
49510;SDS011;35413;48.776;9.204;2022-12-18T09:31:08;13.55;;;8.82;;
49510;SDS011;35413;48.776;9.204;2022-12-18T09:33:35;10.75;;;8.32;;
49510;SDS011;35413;48.776;9.204;2022-12-18T09:36:05;11.15;;;7.90;;
49510;SDS011;35413;48.776;9.204;2022-12-18T09:38:31;11.27;;;7.53;;
49510;SDS011;35413;48.776;9.204;2022-12-18T09:40:59;12.05;;;7.85;;
49510;SDS011;35413;48.776;9.204;2022-12-18T09:43:36;10.73;;;6.95;;
49510;SDS011;35413;48.776;9.204;2022-12-18T09:46:04;9.88;;;6.85;;
49510;SDS011;35413;48.776;9.204;2022-12-18T09:48:32;11.57;;;7.30;;
49510;SDS011;35413;48.776;9.204;2022-12-18T09:51:02;10.07;;;7.43;;
49510;SDS011;35413;48.776;9.204;2022-12-18T09:53:30;9.20;;;6.50;;
49510;SDS011;35413;48.776;9.204;2022-12-18T09:55:57;9.13;;;6.30;;
49510;SDS011;35413;48.776;9.204;2022-12-18T10:00:58;9.48;;;6.35;;
49510;SDS011;35413;48.776;9.204;2022-12-18T10:03:24;9.57;;;6.75;;
49510;SDS011;35413;48.776;9.204;2022-12-18T10:08:33;7.95;;;5.78;;
49510;SDS011;35413;48.776;9.204;2022-12-18T10:11:03;8.07;;;5.75;;
49510;SDS011;35413;48.776;9.204;2022-12-18T10:13:38;8.38;;;6.22;;
49510;SDS011;35413;48.776;9.204;2022-12-18T10:21:18;8.20;;;6.13;;
49510;SDS011;35413;48.776;9.204;2022-12-18T10:23:53;7.05;;;5.18;;
49510;SDS011;35413;48.776;9.204;2022-12-18T10:26:24;8.15;;;5.53;;
49510;SDS011;35413;48.776;9.204;2022-12-18T10:28:50;8.52;;;5.55;;
49510;SDS011;35413;48.776;9.204;2022-12-18T10:31:17;8.10;;;5.80;;
49510;SDS011;35413;48.776;9.204;2022-12-18T10:33:45;7.78;;;5.45;;
49510;SDS011;35413;48.776;9.204;2022-12-18T10:36:11;7.75;;;5.50;;
49510;SDS011;35413;48.776;9.204;2022-12-18T10:38:37;8.02;;;5.70;;
49510;SDS011;35413;48.776;9.204;2022-12-18T10:41:05;7.95;;;5.57;;
49510;SDS011;35413;48.776;9.204;2022-12-18T10:43:35;6.88;;;5.65;;
49510;SDS011;35413;48.776;9.204;2022-12-18T10:48:28;7.30;;;5.53;;
49510;SDS011;35413;48.776;9.204;2022-12-18T10:50:54;11.82;;;5.82;;
49510;SDS011;35413;48.776;9.204;2022-12-18T10:53:22;7.95;;;5.53;;
49510;SDS011;35413;48.776;9.204;2022-12-18T10:55:48;9.07;;;6.45;;
49510;SDS011;35413;48.776;9.204;2022-12-18T10:58:34;7.88;;;5.53;;
49510;SDS011;35413;48.776;9.204;2022-12-18T11:01:04;8.15;;;6.10;;
49510;SDS011;35413;48.776;9.204;2022-12-18T11:06:07;7.53;;;5.78;;
49510;SDS011;35413;48.776;9.204;2022-12-18T11:08:34;11.25;;;5.65;;
49510;SDS011;35413;48.776;9.204;2022-12-18T11:11:00;7.95;;;5.43;;
49510;SDS011;35413;48.776;9.204;2022-12-18T11:13:27;7.00;;;5.10;;
49510;SDS011;35413;48.776;9.204;2022-12-18T11:15:53;11.30;;;7.55;;
49510;SDS011;35413;48.776;9.204;2022-12-18T11:20:50;25.80;;;9.40;;
49510;SDS011;35413;48.776;9.204;2022-12-18T11:23:16;25.38;;;9.38;;
49510;SDS011;35413;48.776;9.204;2022-12-18T11:25:56;68.38;;;16.48;;
49510;SDS011;35413;48.776;9.204;2022-12-18T11:31:09;147.23;;;32.08;;
49510;SDS011;35413;48.776;9.204;2022-12-18T11:33:38;131.90;;;34.90;;
49510;SDS011;35413;48.776;9.204;2022-12-18T11:36:05;114.03;;;27.73;;
49510;SDS011;35413;48.776;9.204;2022-12-18T11:38:34;102.53;;;25.25;;
49510;SDS011;35413;48.776;9.204;2022-12-18T11:41:05;89.55;;;24.98;;
49510;SDS011;35413;48.776;9.204;2022-12-18T11:43:42;90.95;;;25.55;;
49510;SDS011;35413;48.776;9.204;2022-12-18T11:46:15;85.97;;;21.77;;
49510;SDS011;35413;48.776;9.204;2022-12-18T11:48:48;72.85;;;19.83;;
49510;SDS011;35413;48.776;9.204;2022-12-18T11:51:18;75.45;;;18.95;;
49510;SDS011;35413;48.776;9.204;2022-12-18T11:53:46;62.85;;;19.35;;
49510;SDS011;35413;48.776;9.204;2022-12-18T11:56:18;31.27;;;15.50;;
49510;SDS011;35413;48.776;9.204;2022-12-18T11:58:53;33.92;;;14.32;;
49510;SDS011;35413;48.776;9.204;2022-12-18T12:01:30;40.05;;;14.27;;
49510;SDS011;35413;48.776;9.204;2022-12-18T12:16:25;26.33;;;11.15;;
49510;SDS011;35413;48.776;9.204;2022-12-18T12:19:12;32.97;;;12.02;;
49510;SDS011;35413;48.776;9.204;2022-12-18T12:21:42;30.15;;;11.07;;
49510;SDS011;35413;48.776;9.204;2022-12-18T12:24:27;27.05;;;11.95;;
49510;SDS011;35413;48.776;9.204;2022-12-18T12:40:14;27.13;;;9.80;;
49510;SDS011;35413;48.776;9.204;2022-12-18T12:42:45;21.77;;;8.73;;
49510;SDS011;35413;48.776;9.204;2022-12-18T12:45:46;21.05;;;8.48;;
49510;SDS011;35413;48.776;9.204;2022-12-18T12:48:16;21.75;;;8.45;;
49510;SDS011;35413;48.776;9.204;2022-12-18T12:50:43;23.80;;;9.02;;
49510;SDS011;35413;48.776;9.204;2022-12-18T12:53:21;19.17;;;8.95;;
49510;SDS011;35413;48.776;9.204;2022-12-18T12:55:47;18.48;;;7.95;;
49510;SDS011;35413;48.776;9.204;2022-12-18T13:00:41;19.10;;;7.63;;
49510;SDS011;35413;48.776;9.204;2022-12-18T13:05:51;22.52;;;7.80;;
49510;SDS011;35413;48.776;9.204;2022-12-18T13:08:29;19.83;;;7.40;;
49510;SDS011;35413;48.776;9.204;2022-12-18T13:10:57;16.98;;;8.18;;
49510;SDS011;35413;48.776;9.204;2022-12-18T13:13:51;17.42;;;8.38;;
49510;SDS011;35413;48.776;9.204;2022-12-18T13:16:19;20.02;;;7.55;;
49510;SDS011;35413;48.776;9.204;2022-12-18T13:18:49;15.48;;;6.90;;
49510;SDS011;35413;48.776;9.204;2022-12-18T13:21:25;18.25;;;8.30;;
49510;SDS011;35413;48.776;9.204;2022-12-18T13:23:53;17.23;;;7.18;;
49510;SDS011;35413;48.776;9.204;2022-12-18T13:28:52;17.83;;;8.57;;
49510;SDS011;35413;48.776;9.204;2022-12-18T13:33:57;17.35;;;7.30;;
49510;SDS011;35413;48.776;9.204;2022-12-18T13:36:35;18.70;;;7.30;;
49510;SDS011;35413;48.776;9.204;2022-12-18T13:41:39;15.18;;;6.93;;
49510;SDS011;35413;48.776;9.204;2022-12-18T13:46:50;15.70;;;7.03;;
49510;SDS011;35413;48.776;9.204;2022-12-18T13:52:01;12.95;;;5.90;;
49510;SDS011;35413;48.776;9.204;2022-12-18T13:56:54;15.63;;;7.88;;
49510;SDS011;35413;48.776;9.204;2022-12-18T13:59:21;14.30;;;6.90;;
49510;SDS011;35413;48.776;9.204;2022-12-18T14:04:18;12.18;;;6.18;;
49510;SDS011;35413;48.776;9.204;2022-12-18T14:06:45;13.57;;;6.28;;
49510;SDS011;35413;48.776;9.204;2022-12-18T14:09:13;12.82;;;6.03;;
49510;SDS011;35413;48.776;9.204;2022-12-18T14:11:40;14.68;;;7.15;;
49510;SDS011;35413;48.776;9.204;2022-12-18T14:14:06;13.43;;;5.90;;
49510;SDS011;35413;48.776;9.204;2022-12-18T14:16:32;15.90;;;6.55;;
49510;SDS011;35413;48.776;9.204;2022-12-18T14:18:59;15.48;;;6.38;;
49510;SDS011;35413;48.776;9.204;2022-12-18T14:21:26;9.45;;;4.82;;
49510;SDS011;35413;48.776;9.204;2022-12-18T14:24:03;11.85;;;6.50;;
49510;SDS011;35413;48.776;9.204;2022-12-18T14:26:29;10.63;;;5.88;;
49510;SDS011;35413;48.776;9.204;2022-12-18T14:28:56;11.85;;;6.15;;
49510;SDS011;35413;48.776;9.204;2022-12-18T14:31:26;10.95;;;5.93;;
49510;SDS011;35413;48.776;9.204;2022-12-18T14:33:52;12.15;;;6.22;;
49510;SDS011;35413;48.776;9.204;2022-12-18T14:36:25;11.48;;;5.90;;
49510;SDS011;35413;48.776;9.204;2022-12-18T14:38:55;12.32;;;5.80;;
49510;SDS011;35413;48.776;9.204;2022-12-18T14:41:22;7.72;;;5.07;;
49510;SDS011;35413;48.776;9.204;2022-12-18T14:43:49;9.63;;;5.70;;
49510;SDS011;35413;48.776;9.204;2022-12-18T14:46:33;14.13;;;6.43;;
49510;SDS011;35413;48.776;9.204;2022-12-18T14:49:04;14.43;;;6.93;;
49510;SDS011;35413;48.776;9.204;2022-12-18T14:51:41;11.75;;;5.70;;
49510;SDS011;35413;48.776;9.204;2022-12-18T14:54:16;11.05;;;5.70;;
49510;SDS011;35413;48.776;9.204;2022-12-18T14:56:44;13.57;;;5.88;;
49510;SDS011;35413;48.776;9.204;2022-12-18T14:59:19;11.15;;;6.00;;
49510;SDS011;35413;48.776;9.204;2022-12-18T15:04:32;11.90;;;5.50;;
49510;SDS011;35413;48.776;9.204;2022-12-18T15:07:04;13.40;;;6.47;;
49510;SDS011;35413;48.776;9.204;2022-12-18T15:09:31;10.93;;;5.43;;
49510;SDS011;35413;48.776;9.204;2022-12-18T15:11:58;10.70;;;5.57;;
49510;SDS011;35413;48.776;9.204;2022-12-18T15:16:53;10.60;;;5.65;;
49510;SDS011;35413;48.776;9.204;2022-12-18T15:19:20;8.85;;;5.07;;
49510;SDS011;35413;48.776;9.204;2022-12-18T15:21:47;8.40;;;5.32;;
49510;SDS011;35413;48.776;9.204;2022-12-18T15:24:18;9.68;;;5.30;;
49510;SDS011;35413;48.776;9.204;2022-12-18T15:26:44;10.75;;;5.35;;
49510;SDS011;35413;48.776;9.204;2022-12-18T15:29:20;10.40;;;5.72;;
49510;SDS011;35413;48.776;9.204;2022-12-18T15:32:03;10.65;;;5.20;;
49510;SDS011;35413;48.776;9.204;2022-12-18T15:34:29;9.57;;;5.28;;
49510;SDS011;35413;48.776;9.204;2022-12-18T15:36:56;10.50;;;5.68;;
49510;SDS011;35413;48.776;9.204;2022-12-18T15:39:22;12.18;;;5.28;;
49510;SDS011;35413;48.776;9.204;2022-12-18T15:41:48;9.90;;;6.05;;
49510;SDS011;35413;48.776;9.204;2022-12-18T15:44:33;11.95;;;6.95;;
49510;SDS011;35413;48.776;9.204;2022-12-18T15:46:59;8.50;;;5.50;;
49510;SDS011;35413;48.776;9.204;2022-12-18T15:49:25;7.90;;;5.50;;
49510;SDS011;35413;48.776;9.204;2022-12-18T15:51:54;9.38;;;5.90;;
49510;SDS011;35413;48.776;9.204;2022-12-18T15:54:22;9.63;;;6.15;;
49510;SDS011;35413;48.776;9.204;2022-12-18T15:57:09;8.82;;;5.20;;
49510;SDS011;35413;48.776;9.204;2022-12-18T15:59:47;9.82;;;6.25;;
49510;SDS011;35413;48.776;9.204;2022-12-18T16:02:15;7.93;;;5.75;;
49510;SDS011;35413;48.776;9.204;2022-12-18T16:04:41;9.00;;;5.65;;
49510;SDS011;35413;48.776;9.204;2022-12-18T16:07:08;7.30;;;5.40;;
49510;SDS011;35413;48.776;9.204;2022-12-18T16:09:34;9.35;;;6.45;;
49510;SDS011;35413;48.776;9.204;2022-12-18T16:12:00;10.55;;;5.63;;
49510;SDS011;35413;48.776;9.204;2022-12-18T16:14:28;9.25;;;5.30;;
49510;SDS011;35413;48.776;9.204;2022-12-18T16:16:58;8.93;;;5.70;;
49510;SDS011;35413;48.776;9.204;2022-12-18T16:19:25;10.85;;;6.05;;
49510;SDS011;35413;48.776;9.204;2022-12-18T16:21:52;9.60;;;5.50;;
49510;SDS011;35413;48.776;9.204;2022-12-18T16:24:24;8.32;;;5.28;;
49510;SDS011;35413;48.776;9.204;2022-12-18T16:26:50;7.55;;;5.28;;